createdAt,value
2023-06-19T00:00:31.366Z,10.00
2023-06-19T00:02:58.216Z,10.40
2023-06-19T00:05:26.056Z,10.20
2023-06-19T00:07:52.835Z,10.23
2023-06-19T00:10:19.361Z,10.48
2023-06-19T00:12:45.861Z,10.43
2023-06-19T00:15:12.523Z,10.35
2023-06-19T00:17:39.080Z,10.45
2023-06-19T00:20:09.140Z,10.45
2023-06-19T00:22:35.571Z,10.55
2023-06-19T00:25:02.118Z,10.23
2023-06-19T00:27:28.547Z,9.52
2023-06-19T00:29:55.067Z,10.18
2023-06-19T00:32:21.535Z,10.15
2023-06-19T00:34:48.045Z,10.50
2023-06-19T00:37:14.608Z,10.27
2023-06-19T00:39:45.023Z,9.85
2023-06-19T00:42:11.773Z,10.00
2023-06-19T00:44:38.219Z,10.35
2023-06-19T00:47:05.390Z,10.77
2023-06-19T00:49:32.650Z,10.30
2023-06-19T00:51:59.354Z,10.27
2023-06-19T00:54:26.386Z,10.32
2023-06-19T00:56:53.518Z,10.85
2023-06-19T00:59:20.753Z,11.23
2023-06-19T01:01:47.581Z,10.10
2023-06-19T01:04:14.684Z,9.90
2023-06-19T01:06:59.790Z,9.95
2023-06-19T01:09:32.071Z,10.48
2023-06-19T01:12:05.868Z,11.00
2023-06-19T01:14:38.937Z,10.63
2023-06-19T01:17:06.504Z,11.05
2023-06-19T01:19:33.061Z,10.50
2023-06-19T01:22:04.109Z,10.48
2023-06-19T01:24:30.571Z,11.00
2023-06-19T01:26:57.204Z,10.50
2023-06-19T01:29:23.863Z,11.05
2023-06-19T01:31:53.924Z,10.93
2023-06-19T01:34:22.438Z,10.40
2023-06-19T01:36:52.559Z,10.48
2023-06-19T01:39:20.696Z,10.30
2023-06-19T01:41:48.385Z,11.48
2023-06-19T01:44:15.086Z,10.90
2023-06-19T01:46:41.678Z,10.63
2023-06-19T01:49:10.063Z,10.90
2023-06-19T01:51:36.938Z,11.25
2023-06-19T01:54:04.081Z,10.77
2023-06-19T01:56:30.533Z,11.80
2023-06-19T01:58:56.946Z,10.90
2023-06-19T02:01:23.746Z,10.95
2023-06-19T02:03:50.252Z,11.65
2023-06-19T02:06:16.697Z,11.48
2023-06-19T02:08:43.150Z,11.02
2023-06-19T02:11:09.589Z,11.85
2023-06-19T02:13:37.114Z,12.30
2023-06-19T02:16:05.207Z,11.43
2023-06-19T02:18:31.640Z,12.57
2023-06-19T02:20:58.073Z,11.85
2023-06-19T02:23:24.657Z,11.88
2023-06-19T02:25:51.086Z,11.73
2023-06-19T02:28:17.499Z,12.38
2023-06-19T02:30:43.917Z,11.65
2023-06-19T02:33:10.375Z,12.35
2023-06-19T02:35:36.817Z,12.10
2023-06-19T02:38:05.629Z,12.50
2023-06-19T02:40:32.050Z,12.10
2023-06-19T02:42:58.452Z,11.93
2023-06-19T02:45:24.891Z,11.90
2023-06-19T02:47:53.028Z,12.13
2023-06-19T02:50:19.499Z,12.32
2023-06-19T02:52:45.914Z,12.98
2023-06-19T02:55:12.332Z,13.02
2023-06-19T02:57:38.768Z,13.02
2023-06-19T03:00:10.255Z,12.60
2023-06-19T03:02:36.754Z,12.40
2023-06-19T03:05:03.766Z,12.95
2023-06-19T03:07:30.367Z,13.15
2023-06-19T03:09:56.778Z,13.25
2023-06-19T03:12:23.224Z,12.95
2023-06-19T03:14:49.639Z,13.05
2023-06-19T03:17:16.083Z,12.45
2023-06-19T03:19:42.539Z,12.90
2023-06-19T03:22:08.950Z,12.70
2023-06-19T03:24:35.445Z,12.10
2023-06-19T03:27:01.951Z,13.23
2023-06-19T03:29:28.904Z,12.30
2023-06-19T03:31:55.342Z,13.10
2023-06-19T03:34:21.774Z,12.70
2023-06-19T03:36:48.223Z,13.25
2023-06-19T03:39:15.175Z,12.85
2023-06-19T03:41:41.621Z,12.38
2023-06-19T03:44:08.116Z,11.77
2023-06-19T03:46:34.609Z,13.27
2023-06-19T03:49:01.124Z,11.98
2023-06-19T03:51:30.142Z,12.65
2023-06-19T03:53:56.629Z,12.50
2023-06-19T03:56:23.121Z,12.77
2023-06-19T03:58:49.547Z,12.73
2023-06-19T04:01:16.022Z,12.40
2023-06-19T04:03:42.570Z,12.32
2023-06-19T04:06:09.051Z,12.95
2023-06-19T04:08:35.501Z,12.82
2023-06-19T04:11:01.947Z,13.65
2023-06-19T04:13:28.378Z,12.82
2023-06-19T04:15:54.817Z,13.05
2023-06-19T04:18:21.275Z,13.68
2023-06-19T04:20:47.933Z,12.63
2023-06-19T04:23:14.424Z,12.82
2023-06-19T04:25:40.841Z,11.85
2023-06-19T04:28:07.309Z,12.82
2023-06-19T04:30:33.726Z,12.50
2023-06-19T04:33:00.291Z,12.25
2023-06-19T04:35:27.608Z,11.52
2023-06-19T04:37:54.854Z,12.88
2023-06-19T04:40:21.440Z,13.02
2023-06-19T04:42:48.075Z,12.00
2023-06-19T04:45:14.507Z,12.65
2023-06-19T04:47:52.594Z,12.40
2023-06-19T04:50:19.452Z,12.30
2023-06-19T04:52:45.865Z,12.55
2023-06-19T04:55:12.286Z,12.25
2023-06-19T04:57:38.746Z,12.88
2023-06-19T05:00:07.851Z,11.27
2023-06-19T05:02:34.978Z,11.90
2023-06-19T05:05:03.923Z,12.10
2023-06-19T05:07:33.537Z,12.35
2023-06-19T05:10:00.288Z,12.77
2023-06-19T05:12:26.810Z,13.00
2023-06-19T05:14:53.234Z,12.95
2023-06-19T05:17:19.772Z,12.75
2023-06-19T05:19:46.235Z,12.73
2023-06-19T05:22:12.724Z,12.57
2023-06-19T05:24:39.195Z,12.70
2023-06-19T05:27:06.086Z,12.70
2023-06-19T05:29:33.494Z,12.55
2023-06-19T05:31:59.943Z,12.90
2023-06-19T05:34:26.343Z,12.82
2023-06-19T05:36:52.781Z,13.07
2023-06-19T05:39:20.017Z,12.45
2023-06-19T05:41:49.450Z,12.57
2023-06-19T05:44:17.724Z,13.40
2023-06-19T05:46:44.258Z,13.75
2023-06-19T05:49:10.704Z,13.55
2023-06-19T05:51:37.210Z,13.68
2023-06-19T05:54:04.958Z,13.73
2023-06-19T05:56:32.097Z,13.52
2023-06-19T05:58:58.545Z,12.50
2023-06-19T06:01:26.191Z,12.90
2023-06-19T06:03:52.723Z,12.80
2023-06-19T06:06:19.142Z,13.00
2023-06-19T06:08:45.579Z,13.30
2023-06-19T06:11:12.042Z,13.65
2023-06-19T06:13:38.476Z,13.77
2023-06-19T06:16:05.025Z,13.02
2023-06-19T06:18:31.494Z,13.98
2023-06-19T06:21:00.111Z,13.55
2023-06-19T06:23:26.776Z,13.75
2023-06-19T06:25:53.326Z,12.93
2023-06-19T06:28:19.769Z,13.95
2023-06-19T06:30:46.212Z,13.38
2023-06-19T06:33:12.658Z,14.10
2023-06-19T06:35:39.357Z,14.10
2023-06-19T06:38:05.976Z,13.57
2023-06-19T06:40:32.475Z,13.80
2023-06-19T06:42:59.235Z,14.10
2023-06-19T06:45:27.943Z,14.02
2023-06-19T06:47:54.653Z,13.70
2023-06-19T06:50:21.426Z,13.93
2023-06-19T06:52:48.077Z,13.70
2023-06-19T06:55:14.784Z,12.90
2023-06-19T06:57:41.183Z,13.95
2023-06-19T07:00:10.878Z,13.93
2023-06-19T07:02:40.180Z,13.65
2023-06-19T07:05:08.225Z,13.70
2023-06-19T07:07:34.625Z,13.18
2023-06-19T07:10:01.042Z,13.35
2023-06-19T07:12:27.472Z,13.95
2023-06-19T07:14:57.062Z,13.05
2023-06-19T07:17:23.687Z,14.00
2023-06-19T07:19:50.105Z,13.90
2023-06-19T07:22:16.526Z,14.02
2023-06-19T07:24:42.997Z,13.95
2023-06-19T07:27:09.475Z,15.27
2023-06-19T07:29:35.985Z,14.23
2023-06-19T07:32:03.999Z,14.32
2023-06-19T07:34:31.841Z,14.15
2023-06-19T07:36:58.273Z,13.93
2023-06-19T07:39:24.685Z,12.95
2023-06-19T07:41:51.144Z,14.18
2023-06-19T07:44:19.044Z,13.50
2023-06-19T07:46:45.526Z,14.65
2023-06-19T07:49:12.018Z,14.75
2023-06-19T07:51:38.435Z,15.27
2023-06-19T07:54:04.920Z,13.15
2023-06-19T07:56:31.470Z,12.63
2023-06-19T07:58:57.909Z,12.30
2023-06-19T08:01:24.336Z,13.00
2023-06-19T08:03:50.889Z,12.60
2023-06-19T08:06:17.450Z,12.18
2023-06-19T08:08:43.889Z,12.43
2023-06-19T08:11:10.309Z,13.35
2023-06-19T08:13:36.727Z,13.02
2023-06-19T08:16:03.154Z,13.27
2023-06-19T08:18:29.771Z,13.18
2023-06-19T08:20:56.267Z,12.35
2023-06-19T08:23:22.717Z,12.27
2023-06-19T08:25:49.153Z,12.55
2023-06-19T08:28:15.614Z,12.30
2023-06-19T08:30:42.065Z,15.20
2023-06-19T08:33:09.468Z,12.30
2023-06-19T08:35:35.938Z,13.00
2023-06-19T08:38:02.408Z,12.23
2023-06-19T08:40:29.073Z,13.00
2023-06-19T08:42:56.917Z,11.95
2023-06-19T08:45:23.357Z,12.23
2023-06-19T08:47:50.138Z,11.23
2023-06-19T08:50:17.363Z,11.82
2023-06-19T08:52:43.785Z,12.38
2023-06-19T08:55:10.276Z,12.05
2023-06-19T08:57:39.414Z,12.55
2023-06-19T09:00:07.968Z,12.52
2023-06-19T09:02:52.305Z,12.05
2023-06-19T09:05:24.370Z,12.27
2023-06-19T09:07:59.508Z,13.07
2023-06-19T09:10:26.155Z,12.05
2023-06-19T09:13:05.764Z,12.13
2023-06-19T09:15:38.733Z,12.25
2023-06-19T09:18:06.028Z,13.10
2023-06-19T09:20:34.481Z,12.02
2023-06-19T09:23:01.562Z,12.57
2023-06-19T09:25:28.136Z,12.02
2023-06-19T09:27:58.374Z,11.90
2023-06-19T09:30:24.951Z,12.50
2023-06-19T09:32:51.711Z,12.82
2023-06-19T09:35:18.436Z,12.93
2023-06-19T09:37:46.194Z,12.15
2023-06-19T09:40:13.229Z,13.57
2023-06-19T09:42:44.282Z,12.77
2023-06-19T09:45:13.287Z,12.10
2023-06-19T09:47:50.046Z,12.18
2023-06-19T09:50:18.409Z,12.95
2023-06-19T09:52:45.631Z,13.00
2023-06-19T09:55:16.913Z,11.90
2023-06-19T09:57:45.289Z,11.88
2023-06-19T10:00:14.002Z,12.82
2023-06-19T10:02:42.408Z,11.98
2023-06-19T10:05:14.469Z,12.80
2023-06-19T10:07:50.591Z,12.55
2023-06-19T10:10:25.414Z,12.98
2023-06-19T10:12:53.412Z,12.48
2023-06-19T10:15:22.008Z,13.52
2023-06-19T10:17:53.405Z,12.45
2023-06-19T10:20:38.320Z,12.38
2023-06-19T10:23:25.040Z,11.55
2023-06-19T10:25:54.442Z,12.48
2023-06-19T10:28:29.756Z,13.20
2023-06-19T10:31:00.268Z,13.07
2023-06-19T10:33:29.235Z,13.30
2023-06-19T10:35:55.994Z,13.27
2023-06-19T10:38:22.612Z,14.00
2023-06-19T10:40:49.068Z,13.45
2023-06-19T10:43:26.428Z,13.30
2023-06-19T10:45:52.993Z,12.23
2023-06-19T10:48:23.870Z,13.88
2023-06-19T10:50:51.081Z,13.45
2023-06-19T10:53:33.900Z,12.15
2023-06-19T10:56:02.552Z,13.05
2023-06-19T10:58:30.215Z,13.02
2023-06-19T11:00:57.969Z,13.18
2023-06-19T11:03:24.674Z,13.40
2023-06-19T11:05:51.197Z,14.13
2023-06-19T11:08:22.440Z,13.55
2023-06-19T11:10:49.480Z,12.55
2023-06-19T11:13:21.029Z,13.38
2023-06-19T11:15:50.557Z,13.20
2023-06-19T11:18:18.513Z,12.15
2023-06-19T11:20:52.003Z,12.13
2023-06-19T11:23:27.022Z,12.07
2023-06-19T11:25:53.766Z,12.50
2023-06-19T11:28:23.172Z,11.90
2023-06-19T11:30:58.390Z,12.57
2023-06-19T11:33:25.300Z,13.23
2023-06-19T11:35:53.581Z,12.65
2023-06-19T11:38:24.450Z,12.10
2023-06-19T11:40:51.191Z,11.98
2023-06-19T11:43:29.142Z,12.25
2023-06-19T11:46:03.210Z,12.85
2023-06-19T11:48:29.725Z,13.02
2023-06-19T11:50:56.262Z,12.05
2023-06-19T11:53:23.851Z,11.77
2023-06-19T11:55:51.398Z,12.07
2023-06-19T11:58:18.789Z,11.23
2023-06-19T12:00:45.193Z,11.48
2023-06-19T12:03:11.820Z,11.13
2023-06-19T12:05:38.802Z,10.40
2023-06-19T12:08:06.516Z,10.80
2023-06-19T12:10:33.274Z,10.02
2023-06-19T12:12:59.692Z,10.25
2023-06-19T12:15:26.214Z,9.57
2023-06-19T12:17:53.334Z,9.65
2023-06-19T12:20:20.253Z,9.18
2023-06-19T12:22:46.669Z,9.18
2023-06-19T12:25:13.088Z,9.05
2023-06-19T12:27:39.622Z,8.02
2023-06-19T12:30:06.900Z,9.93
2023-06-19T12:32:33.316Z,8.82
2023-06-19T12:34:59.842Z,8.55
2023-06-19T12:37:26.372Z,8.45
2023-06-19T12:39:52.776Z,9.05
2023-06-19T12:42:19.212Z,9.40
2023-06-19T12:44:45.947Z,8.60
2023-06-19T12:47:12.634Z,8.77
2023-06-19T12:49:39.095Z,8.93
2023-06-19T12:52:05.916Z,9.18
2023-06-19T12:54:32.788Z,9.75
2023-06-19T12:56:59.240Z,9.40
2023-06-19T12:59:26.000Z,9.82
2023-06-19T13:01:52.457Z,9.23
2023-06-19T13:04:18.968Z,9.00
2023-06-19T13:06:45.417Z,9.32
2023-06-19T13:09:11.860Z,8.88
2023-06-19T13:11:38.285Z,9.15
2023-06-19T13:14:05.423Z,9.10
2023-06-19T13:16:45.341Z,9.15
2023-06-19T13:19:12.899Z,8.90
2023-06-19T13:21:39.320Z,7.93
2023-06-19T13:24:05.993Z,8.38
2023-06-19T13:26:32.492Z,9.32
2023-06-19T13:28:59.990Z,9.10
2023-06-19T13:31:26.742Z,9.38
2023-06-19T13:33:53.320Z,8.98
2023-06-19T13:36:20.518Z,10.57
2023-06-19T13:38:47.862Z,10.88
2023-06-19T13:41:14.303Z,12.40
2023-06-19T13:43:41.194Z,9.73
2023-06-19T13:46:09.182Z,9.45
2023-06-19T13:48:35.579Z,9.70
2023-06-19T13:51:02.033Z,10.00
2023-06-19T13:53:30.757Z,10.25
2023-06-19T13:55:57.224Z,10.10
2023-06-19T13:58:23.681Z,9.00
2023-06-19T14:00:50.167Z,10.02
2023-06-19T14:03:17.278Z,9.55
2023-06-19T14:05:44.907Z,10.27
2023-06-19T14:08:11.385Z,10.63
2023-06-19T14:10:38.058Z,10.10
2023-06-19T14:13:04.492Z,10.95
2023-06-19T14:15:30.920Z,9.60
2023-06-19T14:17:57.403Z,9.88
2023-06-19T14:20:24.007Z,10.80
2023-06-19T14:22:50.615Z,10.77
2023-06-19T14:25:17.003Z,9.77
2023-06-19T14:27:43.457Z,10.00
2023-06-19T14:30:10.422Z,9.55
2023-06-19T14:32:40.349Z,9.52
2023-06-19T14:35:07.640Z,10.02
2023-06-19T14:37:34.222Z,9.63
2023-06-19T14:40:00.676Z,9.38
2023-06-19T14:42:27.230Z,9.18
2023-06-19T14:44:53.660Z,9.02
2023-06-19T14:47:20.142Z,9.80
2023-06-19T14:49:46.913Z,11.60
2023-06-19T14:52:13.339Z,10.18
2023-06-19T14:54:39.854Z,9.75
2023-06-19T14:57:06.614Z,9.77
2023-06-19T14:59:33.032Z,9.18
2023-06-19T15:01:59.469Z,9.82
2023-06-19T15:04:26.025Z,8.88
2023-06-19T15:06:52.502Z,10.23
2023-06-19T15:09:18.915Z,9.15
2023-06-19T15:11:45.316Z,9.48
2023-06-19T15:14:11.792Z,9.77
2023-06-19T15:16:38.320Z,9.35
2023-06-19T15:19:04.927Z,9.50
2023-06-19T15:21:31.392Z,9.43
2023-06-19T15:23:57.968Z,8.60
2023-06-19T15:26:24.673Z,9.40
2023-06-19T15:28:54.437Z,8.85
2023-06-19T15:31:24.401Z,9.15
2023-06-19T15:33:51.200Z,9.48
2023-06-19T15:36:18.093Z,9.75
2023-06-19T15:38:45.052Z,8.88
2023-06-19T15:41:11.465Z,9.30
2023-06-19T15:43:38.700Z,9.65
2023-06-19T15:46:07.212Z,9.52
2023-06-19T15:48:34.085Z,11.30
2023-06-19T15:51:00.528Z,8.88
2023-06-19T15:53:26.927Z,9.20
2023-06-19T15:55:53.326Z,9.15
2023-06-19T15:58:19.734Z,8.80
2023-06-19T16:00:46.200Z,8.85
2023-06-19T16:03:12.670Z,8.77
2023-06-19T16:05:39.161Z,8.77
2023-06-19T16:08:05.680Z,8.82
2023-06-19T16:10:32.205Z,8.52
2023-06-19T16:12:58.634Z,9.13
2023-06-19T16:15:28.909Z,8.85
2023-06-19T16:17:56.343Z,8.65
2023-06-19T16:20:23.433Z,8.60
2023-06-19T16:22:53.277Z,9.40
2023-06-19T16:25:19.751Z,9.40
2023-06-19T16:27:46.214Z,9.80
2023-06-19T16:30:12.795Z,9.13
2023-06-19T16:32:39.332Z,10.05
2023-06-19T16:35:06.379Z,8.98
2023-06-19T16:37:32.868Z,8.95
2023-06-19T16:39:59.313Z,9.10
2023-06-19T16:42:26.635Z,9.30
2023-06-19T16:44:54.326Z,9.35
2023-06-19T16:47:21.064Z,9.30
2023-06-19T16:49:47.535Z,9.05
2023-06-19T16:52:14.137Z,8.90
2023-06-19T16:54:40.604Z,8.73
2023-06-19T16:57:07.144Z,10.20
2023-06-19T16:59:33.561Z,10.13
2023-06-19T17:02:00.030Z,10.27
2023-06-19T17:04:26.446Z,9.43
2023-06-19T17:06:52.859Z,9.13
2023-06-19T17:09:19.263Z,10.18
2023-06-19T17:11:45.704Z,9.85
2023-06-19T17:14:12.122Z,9.90
2023-06-19T17:16:38.574Z,9.35
2023-06-19T17:19:06.502Z,10.98
2023-06-19T17:21:33.247Z,10.68
2023-06-19T17:23:59.681Z,9.63
2023-06-19T17:26:26.217Z,10.20
2023-06-19T17:28:52.621Z,9.57
2023-06-19T17:31:19.026Z,9.07
2023-06-19T17:33:45.422Z,9.95
2023-06-19T17:36:11.821Z,9.55
2023-06-19T17:38:38.290Z,9.65
2023-06-19T17:41:05.390Z,10.93
2023-06-19T17:43:31.873Z,9.90
2023-06-19T17:45:58.319Z,11.25
2023-06-19T17:48:24.760Z,10.27
2023-06-19T17:50:51.176Z,10.60
2023-06-19T17:53:17.602Z,11.05
2023-06-19T17:55:44.373Z,10.38
2023-06-19T17:58:10.879Z,11.20
2023-06-19T18:00:37.341Z,11.25
2023-06-19T18:03:05.441Z,12.18
2023-06-19T18:05:31.973Z,12.32
2023-06-19T18:07:58.416Z,11.73
2023-06-19T18:10:25.034Z,12.07
2023-06-19T18:12:51.569Z,12.00
2023-06-19T18:15:18.112Z,11.88
2023-06-19T18:17:44.573Z,12.43
2023-06-19T18:20:11.920Z,12.38
2023-06-19T18:22:39.617Z,12.77
2023-06-19T18:25:06.460Z,11.35
2023-06-19T18:27:33.399Z,12.80
2023-06-19T18:30:02.221Z,12.68
2023-06-19T18:32:30.785Z,12.05
2023-06-19T18:34:57.238Z,12.68
2023-06-19T18:37:23.698Z,13.35
2023-06-19T18:39:52.976Z,11.57
2023-06-19T18:42:19.380Z,12.80
2023-06-19T18:44:45.781Z,13.13
2023-06-19T18:47:12.181Z,12.65
2023-06-19T18:49:38.612Z,12.13
2023-06-19T18:52:05.508Z,12.88
2023-06-19T18:54:31.919Z,14.02
2023-06-19T18:56:58.341Z,12.70
2023-06-19T18:59:24.785Z,12.48
2023-06-19T19:01:51.252Z,13.07
2023-06-19T19:04:17.778Z,13.02
2023-06-19T19:06:44.183Z,12.98
2023-06-19T19:09:10.689Z,12.90
2023-06-19T19:11:37.151Z,11.68
2023-06-19T19:14:03.640Z,13.32
2023-06-19T19:16:30.101Z,13.35
2023-06-19T19:18:56.527Z,13.15
2023-06-19T19:21:22.956Z,12.55
2023-06-19T19:23:49.405Z,13.00
2023-06-19T19:26:15.840Z,13.35
2023-06-19T19:28:42.249Z,13.40
2023-06-19T19:31:08.715Z,12.65
2023-06-19T19:33:35.191Z,13.70
2023-06-19T19:36:02.300Z,13.43
2023-06-19T19:38:28.707Z,17.60
2023-06-19T19:40:55.109Z,20.38
2023-06-19T19:43:21.514Z,15.02
2023-06-19T19:45:48.054Z,14.00
2023-06-19T19:48:14.552Z,15.32
2023-06-19T19:50:40.961Z,15.00
2023-06-19T19:53:07.357Z,15.50
2023-06-19T19:55:33.825Z,16.50
2023-06-19T19:58:01.952Z,22.33
2023-06-19T20:00:29.158Z,21.25
2023-06-19T20:02:55.649Z,16.33
2023-06-19T20:05:22.136Z,13.73
2023-06-19T20:07:48.576Z,14.90
2023-06-19T20:10:15.080Z,15.10
2023-06-19T20:12:41.484Z,15.07
2023-06-19T20:15:08.616Z,13.98
2023-06-19T20:17:35.078Z,16.13
2023-06-19T20:20:04.932Z,15.27
2023-06-19T20:22:31.410Z,15.15
2023-06-19T20:24:57.836Z,15.10
2023-06-19T20:27:24.247Z,14.85
2023-06-19T20:29:50.652Z,14.73
2023-06-19T20:32:17.060Z,14.35
2023-06-19T20:34:43.488Z,15.00
2023-06-19T20:37:09.993Z,15.55
2023-06-19T20:39:36.417Z,14.95
2023-06-19T20:42:03.600Z,35.20
2023-06-19T20:44:30.288Z,15.48
2023-06-19T20:46:58.523Z,15.40
2023-06-19T20:49:26.311Z,15.48
2023-06-19T20:51:52.768Z,16.05
2023-06-19T20:54:20.078Z,15.70
2023-06-19T20:56:46.466Z,14.88
2023-06-19T20:59:13.057Z,15.77
2023-06-19T21:01:40.474Z,23.10
2023-06-19T21:04:07.094Z,17.70
2023-06-19T21:06:34.592Z,17.75
2023-06-19T21:09:04.058Z,17.88
2023-06-19T21:11:30.522Z,17.02
2023-06-19T21:13:56.958Z,17.52
2023-06-19T21:16:23.873Z,17.27
2023-06-19T21:18:51.285Z,16.27
2023-06-19T21:21:17.714Z,18.65
2023-06-19T21:23:44.134Z,19.42
2023-06-19T21:26:10.550Z,17.70
2023-06-19T21:28:36.951Z,16.52
2023-06-19T21:31:03.350Z,16.00
2023-06-19T21:33:33.180Z,16.08
2023-06-19T21:35:59.639Z,15.70
2023-06-19T21:38:28.711Z,16.02
2023-06-19T21:40:55.141Z,15.88
2023-06-19T21:43:21.585Z,15.23
2023-06-19T21:45:48.147Z,16.10
2023-06-19T21:48:14.754Z,16.02
2023-06-19T21:50:41.218Z,16.33
2023-06-19T21:53:07.655Z,31.23
2023-06-19T21:55:34.162Z,30.75
2023-06-19T21:58:01.009Z,18.33
2023-06-19T22:00:28.956Z,17.70
2023-06-19T22:02:57.062Z,17.48
2023-06-19T22:05:23.576Z,18.27
2023-06-19T22:07:50.332Z,17.05
2023-06-19T22:10:17.126Z,18.02
2023-06-19T22:12:43.535Z,17.30
2023-06-19T22:15:10.411Z,16.77
2023-06-19T22:17:36.937Z,17.45
2023-06-19T22:20:04.589Z,18.00
2023-06-19T22:22:31.033Z,18.08
2023-06-19T22:24:57.485Z,16.88
2023-06-19T22:27:23.924Z,16.77
2023-06-19T22:29:50.362Z,17.75
2023-06-19T22:32:16.797Z,22.75
2023-06-19T22:34:43.220Z,24.05
2023-06-19T22:37:09.668Z,27.90
2023-06-19T22:39:36.074Z,19.15
2023-06-19T22:42:03.215Z,17.23
2023-06-19T22:44:29.632Z,18.52
2023-06-19T22:46:56.227Z,18.02
2023-06-19T22:49:22.620Z,17.27
2023-06-19T22:51:49.017Z,17.27
2023-06-19T22:54:15.435Z,17.42
2023-06-19T22:56:41.884Z,17.90
2023-06-19T22:59:08.319Z,18.35
2023-06-19T23:01:34.975Z,18.00
2023-06-19T23:04:01.523Z,17.40
2023-06-19T23:06:27.942Z,17.05
2023-06-19T23:08:54.343Z,17.33
2023-06-19T23:11:20.744Z,18.13
2023-06-19T23:13:47.234Z,17.83
2023-06-19T23:16:13.673Z,17.13
2023-06-19T23:18:40.082Z,17.08
2023-06-19T23:21:06.487Z,18.05
2023-06-19T23:23:33.572Z,18.13
2023-06-19T23:26:02.603Z,18.45
2023-06-19T23:28:32.480Z,18.70
2023-06-19T23:30:59.808Z,19.27
2023-06-19T23:33:26.984Z,18.58
2023-06-19T23:35:57.309Z,19.02
2023-06-19T23:38:25.233Z,40.35
2023-06-19T23:40:52.100Z,21.10
2023-06-19T23:43:19.030Z,19.40
2023-06-19T23:45:46.021Z,20.38
2023-06-19T23:48:12.750Z,19.15
2023-06-19T23:50:39.681Z,19.20
2023-06-19T23:53:06.369Z,19.25
2023-06-19T23:55:32.788Z,19.20
2023-06-19T23:57:59.170Z,18.83
